createdAt,value
2023-04-14T00:00:00.547Z,2.8
2023-04-14T00:01:00.546Z,2.8
2023-04-14T00:02:00.624Z,2.8
2023-04-14T00:03:00.644Z,2.8
2023-04-14T00:04:00.793Z,2.8
2023-04-14T00:05:00.635Z,2.8
2023-04-14T00:06:00.517Z,2.8
2023-04-14T00:07:00.540Z,2.8
2023-04-14T00:08:00.523Z,2.8
2023-04-14T00:09:00.727Z,2.8
2023-04-14T00:10:00.544Z,2.8
2023-04-14T00:11:00.550Z,2.9
2023-04-14T00:12:00.543Z,2.9
2023-04-14T00:13:00.534Z,2.9
2023-04-14T00:14:00.558Z,2.9
2023-04-14T00:15:00.586Z,2.9
2023-04-14T00:16:00.562Z,2.9
2023-04-14T00:17:00.558Z,2.9
2023-04-14T00:18:00.621Z,2.9
2023-04-14T00:19:00.748Z,2.9
2023-04-14T00:20:00.566Z,2.9
2023-04-14T00:21:00.546Z,2.9
2023-04-14T00:22:00.539Z,3
2023-04-14T00:23:00.548Z,3
2023-04-14T00:24:00.552Z,3
2023-04-14T00:25:00.577Z,3.1
2023-04-14T00:26:00.554Z,3.1
2023-04-14T00:27:00.545Z,3.1
2023-04-14T00:28:00.548Z,3.1
2023-04-14T00:29:01.081Z,3.1
2023-04-14T00:30:00.581Z,3.1
2023-04-14T00:31:00.614Z,3.1
2023-04-14T00:32:00.564Z,3.1
2023-04-14T00:33:00.626Z,3.1
2023-04-14T00:34:00.569Z,3.1
2023-04-14T00:35:00.568Z,3.1
2023-04-14T00:36:00.585Z,3.1
2023-04-14T00:37:00.581Z,3.2
2023-04-14T00:38:00.561Z,3.2
2023-04-14T00:39:00.757Z,3.2
2023-04-14T00:40:00.603Z,3.2
2023-04-14T00:41:00.611Z,3.2
2023-04-14T00:42:00.558Z,3.2
2023-04-14T00:43:00.569Z,3.2
2023-04-14T00:44:00.608Z,3.2
2023-04-14T00:45:00.573Z,3.2
2023-04-14T00:46:00.595Z,3.2
2023-04-14T00:47:00.571Z,3.2
2023-04-14T00:48:00.664Z,3.3
2023-04-14T00:49:00.842Z,3.3
2023-04-14T00:50:00.624Z,3.3
2023-04-14T00:51:00.573Z,3.4
2023-04-14T00:52:00.582Z,3.4
2023-04-14T00:53:00.572Z,3.4
2023-04-14T00:54:00.594Z,3.4
2023-04-14T00:55:00.593Z,3.4
2023-04-14T00:56:00.585Z,3.4
2023-04-14T00:57:00.624Z,3.4
2023-04-14T00:58:00.580Z,3.4
2023-04-14T00:59:00.700Z,3.4
2023-04-14T01:00:00.640Z,3.4
2023-04-14T01:01:00.604Z,3.4
2023-04-14T01:02:00.747Z,3.4
2023-04-14T01:03:00.798Z,3.4
2023-04-14T01:04:00.858Z,3.4
2023-04-14T01:05:00.813Z,3.4
2023-04-14T01:06:00.601Z,3.4
2023-04-14T01:07:00.664Z,3.4
2023-04-14T01:08:00.593Z,3.4
2023-04-14T01:09:00.766Z,3.4
2023-04-14T01:10:00.934Z,3.4
2023-04-14T01:11:00.598Z,3.4
2023-04-14T01:12:00.613Z,3.4
2023-04-14T01:13:00.686Z,3.5
2023-04-14T01:14:00.621Z,3.5
2023-04-14T01:15:00.646Z,3.5
2023-04-14T01:16:00.667Z,3.5
2023-04-14T01:17:00.612Z,3.5
2023-04-14T01:18:00.714Z,3.5
2023-04-14T01:19:02.069Z,3.5
2023-04-14T01:20:00.817Z,3.5
2023-04-14T01:21:00.671Z,3.5
2023-04-14T01:22:00.691Z,3.5
2023-04-14T01:23:00.713Z,3.4
2023-04-14T01:24:00.681Z,3.5
2023-04-14T01:25:00.706Z,3.5
2023-04-14T01:26:00.705Z,3.5
2023-04-14T01:27:00.874Z,3.5
2023-04-14T01:28:00.729Z,3.5
2023-04-14T01:29:00.886Z,3.5
2023-04-14T01:30:01.042Z,3.5
2023-04-14T01:31:00.761Z,3.5
2023-04-14T01:32:00.868Z,3.5
2023-04-14T01:33:00.887Z,3.5
2023-04-14T01:34:00.752Z,3.5
2023-04-14T01:35:00.786Z,3.6
2023-04-14T01:36:00.780Z,3.6
2023-04-14T01:37:00.735Z,3.5
2023-04-14T01:38:00.790Z,3.5
2023-04-14T01:39:00.789Z,3.6
2023-04-14T01:40:00.862Z,3.6
2023-04-14T01:41:00.760Z,3.6
2023-04-14T01:42:00.692Z,3.6
2023-04-14T01:43:00.746Z,3.6
2023-04-14T01:44:00.643Z,3.6
2023-04-14T01:45:00.809Z,3.6
2023-04-14T01:46:00.706Z,3.6
2023-04-14T01:47:00.629Z,3.6
2023-04-14T01:48:00.691Z,3.5
2023-04-14T01:49:00.883Z,3.5
2023-04-14T01:50:00.730Z,3.5
2023-04-14T01:51:00.652Z,3.5
2023-04-14T01:52:00.655Z,3.6
2023-04-14T01:53:00.635Z,3.6
2023-04-14T01:54:00.640Z,3.6
2023-04-14T01:55:00.654Z,3.6
2023-04-14T01:56:00.644Z,3.6
2023-04-14T01:57:00.659Z,3.6
2023-04-14T01:58:00.655Z,3.6
2023-04-14T01:59:00.772Z,3.6
2023-04-14T02:00:02.094Z,3.6
2023-04-14T02:01:01.852Z,3.6
2023-04-14T02:02:01.887Z,3.6
2023-04-14T02:03:01.922Z,3.6
2023-04-14T02:04:02.005Z,3.5
2023-04-14T02:05:01.941Z,3.5
2023-04-14T02:06:01.832Z,3.4
2023-04-14T02:07:01.860Z,3.4
2023-04-14T02:08:01.899Z,3.4
2023-04-14T02:09:02.206Z,3.4
2023-04-14T02:10:01.977Z,3.4
2023-04-14T02:11:01.869Z,3.4
2023-04-14T02:12:01.903Z,3.4
2023-04-14T02:13:01.839Z,3.4
2023-04-14T02:14:01.841Z,3.4
2023-04-14T02:15:01.866Z,3.4
2023-04-14T02:16:01.966Z,3.4
2023-04-14T02:17:01.935Z,3.4
2023-04-14T02:18:01.882Z,3.4
2023-04-14T02:19:02.295Z,3.4
2023-04-14T02:20:02.096Z,3.4
2023-04-14T02:21:01.867Z,3.4
2023-04-14T02:22:01.916Z,3.4
2023-04-14T02:23:01.905Z,3.4
2023-04-14T02:24:01.862Z,3.4
2023-04-14T02:25:01.890Z,3.4
2023-04-14T02:26:01.883Z,3.4
2023-04-14T02:27:01.876Z,3.4
2023-04-14T02:28:01.912Z,3.3
2023-04-14T02:29:02.163Z,3.4
2023-04-14T02:30:02.059Z,3.4
2023-04-14T02:31:01.957Z,3.3
2023-04-14T02:32:01.872Z,3.3
2023-04-14T02:33:01.920Z,3.3
2023-04-14T02:34:01.883Z,3.3
2023-04-14T02:35:01.958Z,3.3
2023-04-14T02:36:01.912Z,3.2
2023-04-14T02:37:01.879Z,3.2
2023-04-14T02:38:01.879Z,3.2
2023-04-14T02:39:02.082Z,3.2
2023-04-14T02:40:01.956Z,3.2
2023-04-14T02:41:01.872Z,3.2
2023-04-14T02:42:01.886Z,3.2
2023-04-14T02:43:01.900Z,3.2
2023-04-14T02:44:01.891Z,3.2
2023-04-14T02:45:01.872Z,3.2
2023-04-14T02:46:01.902Z,3.2
2023-04-14T02:47:01.873Z,3.2
2023-04-14T02:48:01.904Z,3.2
2023-04-14T02:49:02.162Z,3.2
2023-04-14T02:50:01.966Z,3.2
2023-04-14T02:51:01.894Z,3.1
2023-04-14T02:52:01.882Z,3.2
2023-04-14T02:53:01.876Z,3.1
2023-04-14T02:54:01.917Z,3.1
2023-04-14T02:55:01.909Z,3.1
2023-04-14T02:56:01.895Z,3.1
2023-04-14T02:57:01.886Z,3.1
2023-04-14T02:58:01.896Z,3.1
2023-04-14T02:59:02.153Z,3.1
2023-04-14T03:00:02.009Z,3
2023-04-14T03:01:01.912Z,3
2023-04-14T03:02:02.002Z,3
2023-04-14T03:03:02.019Z,2.9
2023-04-14T03:04:01.937Z,2.9
2023-04-14T03:05:02.026Z,2.9
2023-04-14T03:06:01.925Z,2.9
2023-04-14T03:07:01.888Z,2.9
2023-04-14T03:08:01.887Z,2.9
2023-04-14T03:09:02.271Z,2.9
2023-04-14T03:10:02.058Z,2.9
2023-04-14T03:11:01.901Z,2.9
2023-04-14T03:12:01.900Z,2.9
2023-04-14T03:13:01.910Z,2.9
2023-04-14T03:14:01.908Z,2.9
2023-04-14T03:15:01.986Z,3
2023-04-14T03:16:01.965Z,3
2023-04-14T03:17:01.891Z,3
2023-04-14T03:18:01.930Z,3
2023-04-14T03:19:02.158Z,3
2023-04-14T03:20:01.911Z,3
2023-04-14T03:21:01.911Z,3
2023-04-14T03:22:01.912Z,3
2023-04-14T03:23:01.927Z,3
2023-04-14T03:24:01.935Z,3
2023-04-14T03:25:01.919Z,3
2023-04-14T03:26:01.981Z,3
2023-04-14T03:27:01.935Z,3
2023-04-14T03:28:01.930Z,3
2023-04-14T03:29:02.095Z,3
2023-04-14T03:30:01.933Z,3
2023-04-14T03:31:01.989Z,3
2023-04-14T03:32:01.917Z,3
2023-04-14T03:33:01.997Z,3
2023-04-14T03:34:01.944Z,2.9
2023-04-14T03:35:01.992Z,2.9
2023-04-14T03:36:01.914Z,2.9
2023-04-14T03:37:01.956Z,2.9
2023-04-14T03:38:01.927Z,2.9
2023-04-14T03:39:02.173Z,2.9
2023-04-14T03:40:02.042Z,2.9
2023-04-14T03:41:02.768Z,2.9
2023-04-14T03:42:02.014Z,2.9
2023-04-14T03:43:01.940Z,2.9
2023-04-14T03:44:01.931Z,2.9
2023-04-14T03:45:01.962Z,2.9
2023-04-14T03:46:01.920Z,2.9
2023-04-14T03:47:02.053Z,2.9
2023-04-14T03:48:02.045Z,2.9
2023-04-14T03:49:02.028Z,2.9
2023-04-14T03:50:01.970Z,2.9
2023-04-14T03:51:01.937Z,2.9
2023-04-14T03:52:01.944Z,2.9
2023-04-14T03:53:01.940Z,2.9
2023-04-14T03:54:01.946Z,2.9
2023-04-14T03:55:01.969Z,2.9
2023-04-14T03:56:01.937Z,2.9
2023-04-14T03:57:01.963Z,2.8
2023-04-14T03:58:01.981Z,2.8
2023-04-14T03:59:02.155Z,2.8
2023-04-14T04:00:02.071Z,2.8
2023-04-14T04:01:01.945Z,2.8
2023-04-14T04:02:02.046Z,2.8
2023-04-14T04:03:02.100Z,2.8
2023-04-14T04:04:02.002Z,2.8
2023-04-14T04:05:02.087Z,2.8
2023-04-14T04:06:01.939Z,2.8
2023-04-14T04:07:01.944Z,2.8
2023-04-14T04:08:01.946Z,2.8
2023-04-14T04:09:02.380Z,2.8
2023-04-14T04:10:01.998Z,2.8
2023-04-14T04:11:01.949Z,2.8
2023-04-14T04:12:01.967Z,2.8
2023-04-14T04:13:01.970Z,2.8
2023-04-14T04:14:01.988Z,2.8
2023-04-14T04:15:01.969Z,2.8
2023-04-14T04:16:01.959Z,2.8
2023-04-14T04:17:02.081Z,2.7
2023-04-14T04:18:02.053Z,2.7
2023-04-14T04:19:02.246Z,2.7
2023-04-14T04:20:02.030Z,2.6
2023-04-14T04:21:01.965Z,2.6
2023-04-14T04:22:01.962Z,2.6
2023-04-14T04:23:01.968Z,2.6
2023-04-14T04:24:01.992Z,2.6
2023-04-14T04:25:01.991Z,2.5
2023-04-14T04:26:02.048Z,2.4
2023-04-14T04:27:00.477Z,2.4
2023-04-14T04:28:00.484Z,2.4
2023-04-14T04:29:00.742Z,2.4
2023-04-14T04:30:00.514Z,2.4
2023-04-14T04:31:00.508Z,2.4
2023-04-14T04:32:00.543Z,2.4
2023-04-14T04:33:00.499Z,2.4
2023-04-14T04:34:00.490Z,2.4
2023-04-14T04:35:00.529Z,2.3
2023-04-14T04:36:00.488Z,2.3
2023-04-14T04:37:00.511Z,2.2
2023-04-14T04:38:00.511Z,2.2
2023-04-14T04:39:00.800Z,2.2
2023-04-14T04:40:00.562Z,2.2
2023-04-14T04:41:00.559Z,2.2
2023-04-14T04:42:00.488Z,2.2
2023-04-14T04:43:00.549Z,2.1
2023-04-14T04:44:00.500Z,2.1
2023-04-14T04:45:00.511Z,2.1
2023-04-14T04:46:00.527Z,2.1
2023-04-14T04:47:00.508Z,2.1
2023-04-14T04:48:00.556Z,2.1
2023-04-14T04:49:00.834Z,2.1
2023-04-14T04:50:00.535Z,2.1
2023-04-14T04:51:00.525Z,2
2023-04-14T04:52:00.512Z,2
2023-04-14T04:53:00.551Z,2
2023-04-14T04:54:00.515Z,2
2023-04-14T04:55:00.572Z,2.1
2023-04-14T04:56:00.596Z,2.1
2023-04-14T04:57:00.586Z,2.1
2023-04-14T04:58:00.564Z,2.1
2023-04-14T04:59:00.917Z,2.1
2023-04-14T05:00:00.811Z,2
2023-04-14T05:01:00.631Z,2
2023-04-14T05:02:00.717Z,2.1
2023-04-14T05:03:00.692Z,2
2023-04-14T05:04:00.634Z,1.9
2023-04-14T05:05:00.675Z,1.9
2023-04-14T05:06:00.666Z,1.9
2023-04-14T05:07:00.739Z,1.9
2023-04-14T05:08:00.522Z,1.9
2023-04-14T05:09:00.885Z,1.9
2023-04-14T05:10:00.678Z,1.9
2023-04-14T05:11:00.648Z,1.9
2023-04-14T05:12:00.681Z,1.9
2023-04-14T05:13:00.626Z,1.9
2023-04-14T05:14:00.679Z,1.9
2023-04-14T05:15:00.566Z,1.9
2023-04-14T05:16:00.678Z,1.9
2023-04-14T05:17:00.683Z,1.9
2023-04-14T05:18:00.555Z,1.9
2023-04-14T05:19:01.057Z,1.9
2023-04-14T05:20:00.594Z,1.9
2023-04-14T05:21:00.538Z,1.9
2023-04-14T05:22:00.568Z,1.9
2023-04-14T05:23:00.541Z,1.9
2023-04-14T05:24:00.549Z,1.9
2023-04-14T05:25:00.575Z,1.9
2023-04-14T05:26:14.641Z,1.9
2023-04-14T05:27:13.789Z,1.9
2023-04-14T05:28:00.556Z,1.9
2023-04-14T05:29:00.935Z,1.9
2023-04-14T05:30:00.560Z,1.9
2023-04-14T05:31:01.462Z,1.9
2023-04-14T05:32:00.576Z,1.9
2023-04-14T05:33:00.643Z,1.9
2023-04-14T05:34:00.904Z,1.9
2023-04-14T05:35:00.586Z,1.9
2023-04-14T05:36:00.556Z,1.9
2023-04-14T05:37:00.577Z,1.9
2023-04-14T05:38:00.561Z,1.9
2023-04-14T05:39:00.558Z,1.9
2023-04-14T05:40:00.603Z,2
2023-04-14T05:41:00.570Z,1.9
2023-04-14T05:42:00.587Z,2
2023-04-14T05:43:00.560Z,2.1
2023-04-14T05:44:01.020Z,2.1
2023-04-14T05:45:00.574Z,2.1
2023-04-14T05:46:00.567Z,2.1
2023-04-14T05:47:00.746Z,2.1
2023-04-14T05:48:00.651Z,2.2
2023-04-14T05:49:00.902Z,2.2
2023-04-14T05:50:00.566Z,2.2
2023-04-14T05:51:00.568Z,2.2
2023-04-14T05:52:00.618Z,2.2
2023-04-14T05:53:00.579Z,2.2
2023-04-14T05:54:01.090Z,2.2
2023-04-14T05:55:00.588Z,2.3
2023-04-14T05:56:00.592Z,2.3
2023-04-14T05:57:00.596Z,2.4
2023-04-14T05:58:00.575Z,2.4
2023-04-14T05:59:00.576Z,2.4
2023-04-14T06:00:00.581Z,2.4
2023-04-14T06:01:00.602Z,2.4
2023-04-14T06:02:00.654Z,2.5
2023-04-14T06:03:00.938Z,2.5
2023-04-14T06:04:01.389Z,2.5
2023-04-14T06:05:00.671Z,2.6
2023-04-14T06:06:00.592Z,2.6
2023-04-14T06:07:00.609Z,2.6
2023-04-14T06:08:00.590Z,2.6
2023-04-14T06:09:01.023Z,2.6
2023-04-14T06:10:00.639Z,2.7
2023-04-14T06:11:00.609Z,2.7
2023-04-14T06:12:00.613Z,2.7
2023-04-14T06:13:00.597Z,2.7
2023-04-14T06:14:00.777Z,2.8
2023-04-14T06:15:00.590Z,2.8
2023-04-14T06:16:00.630Z,2.8
2023-04-14T06:17:00.664Z,2.8
2023-04-14T06:18:00.617Z,2.9
2023-04-14T06:19:01.085Z,2.9
2023-04-14T06:20:00.613Z,2.9
2023-04-14T06:21:00.620Z,3
2023-04-14T06:22:00.609Z,3
2023-04-14T06:23:00.613Z,3.1
2023-04-14T06:24:00.615Z,3.1
2023-04-14T06:25:00.665Z,3.1
2023-04-14T06:26:01.422Z,3.2
2023-04-14T06:27:00.617Z,3.2
2023-04-14T06:28:00.604Z,3.2
2023-04-14T06:29:01.215Z,3.3
2023-04-14T06:30:00.614Z,3.4
2023-04-14T06:31:00.638Z,3.4
2023-04-14T06:32:00.684Z,3.5
2023-04-14T06:33:00.668Z,3.6
2023-04-14T06:34:00.633Z,3.6
2023-04-14T06:35:00.626Z,3.7
2023-04-14T06:36:00.630Z,3.7
2023-04-14T06:37:00.619Z,3.8
2023-04-14T06:38:00.612Z,3.8
2023-04-14T06:39:00.852Z,3.8
2023-04-14T06:40:00.657Z,3.9
2023-04-14T06:41:00.635Z,3.9
2023-04-14T06:42:00.636Z,4
2023-04-14T06:43:00.618Z,4
2023-04-14T06:44:00.619Z,4.1
2023-04-14T06:45:00.633Z,4.1
2023-04-14T06:46:00.728Z,4.1
2023-04-14T06:47:00.645Z,4.2
2023-04-14T06:48:00.679Z,4.2
2023-04-14T06:49:00.957Z,4.2
2023-04-14T06:50:00.664Z,4.3
2023-04-14T06:51:00.654Z,4.3
2023-04-14T06:52:00.635Z,4.4
2023-04-14T06:53:00.638Z,4.4
2023-04-14T06:54:00.965Z,4.4
2023-04-14T06:55:00.680Z,4.4
2023-04-14T06:56:00.670Z,4.4
2023-04-14T06:57:01.217Z,4.5
2023-04-14T06:58:00.636Z,4.5
2023-04-14T06:59:00.656Z,4.6
2023-04-14T07:00:00.683Z,4.6
2023-04-14T07:01:00.685Z,4.6
2023-04-14T07:02:00.924Z,4.6
2023-04-14T07:03:00.804Z,4.7
2023-04-14T07:04:00.851Z,4.8
2023-04-14T07:05:00.759Z,4.8
2023-04-14T07:06:00.681Z,4.8
2023-04-14T07:07:00.649Z,4.8
2023-04-14T07:08:00.663Z,4.8
2023-04-14T07:09:00.686Z,4.9
2023-04-14T07:10:00.691Z,4.9
2023-04-14T07:11:00.645Z,4.9
2023-04-14T07:12:00.648Z,4.9
2023-04-14T07:13:00.680Z,4.9
2023-04-14T07:14:00.867Z,4.9
2023-04-14T07:15:00.678Z,4.9
2023-04-14T07:16:01.316Z,5
2023-04-14T07:17:00.670Z,5
2023-04-14T07:18:00.694Z,5.1
2023-04-14T07:19:00.673Z,5.1
2023-04-14T07:20:00.691Z,5.2
2023-04-14T07:21:00.679Z,5.2
2023-04-14T07:22:00.671Z,5.2
2023-04-14T07:23:00.695Z,5.3
2023-04-14T07:24:00.956Z,5.4
2023-04-14T07:25:00.813Z,5.4
2023-04-14T07:26:00.670Z,5.4
2023-04-14T07:27:00.693Z,5.5
2023-04-14T07:28:03.845Z,5.6
2023-04-14T07:29:00.661Z,5.6
2023-04-14T07:30:00.696Z,5.6
2023-04-14T07:31:00.685Z,5.7
2023-04-14T07:32:00.683Z,5.7
2023-04-14T07:33:00.736Z,5.8
2023-04-14T07:34:00.873Z,5.8
2023-04-14T07:35:00.808Z,5.9
2023-04-14T07:37:00.692Z,6
2023-04-14T07:38:00.724Z,6.1
2023-04-14T07:39:00.675Z,6.1
2023-04-14T07:40:00.799Z,6.2
2023-04-14T07:41:00.694Z,6.2
2023-04-14T07:42:00.688Z,6.3
2023-04-14T07:43:00.682Z,6.3
2023-04-14T07:44:01.072Z,6.2
2023-04-14T07:45:00.838Z,6.2
2023-04-14T07:46:00.735Z,6.3
2023-04-14T07:47:00.695Z,6.3
2023-04-14T07:48:00.738Z,6.4
2023-04-14T07:49:00.714Z,6.4
2023-04-14T07:50:00.790Z,6.5
2023-04-14T07:51:00.692Z,6.6
2023-04-14T07:52:00.690Z,6.6
2023-04-14T07:53:00.699Z,6.8
2023-04-14T07:54:00.930Z,6.8
2023-04-14T07:55:00.722Z,6.9
2023-04-14T07:56:00.720Z,6.9
2023-04-14T07:57:00.687Z,7
2023-04-14T07:58:00.702Z,7.1
2023-04-14T07:59:00.904Z,7.1
2023-04-14T08:00:00.805Z,7.2
2023-04-14T08:01:00.728Z,7.2
2023-04-14T08:02:00.820Z,7.2
2023-04-14T08:03:00.892Z,7.2
2023-04-14T08:04:00.984Z,7.2
2023-04-14T08:05:00.739Z,7.2
2023-04-14T08:06:00.733Z,7.2
2023-04-14T08:07:00.723Z,7.2
2023-04-14T08:08:00.703Z,7.2
2023-04-14T08:09:00.879Z,7.3
2023-04-14T08:10:00.779Z,7.3
2023-04-14T08:11:00.712Z,7.3
2023-04-14T08:12:00.737Z,7.3
2023-04-14T08:13:03.592Z,7.4
2023-04-14T08:14:00.710Z,7.4
2023-04-14T08:15:00.747Z,7.4
2023-04-14T08:16:01.064Z,7.4
2023-04-14T08:17:00.715Z,7.3
2023-04-14T08:18:00.745Z,7.2
2023-04-14T08:19:00.900Z,7.2
2023-04-14T08:20:00.817Z,7.1
2023-04-14T08:21:01.470Z,7.1
2023-04-14T08:22:00.710Z,7.1
2023-04-14T08:23:00.728Z,7.1
2023-04-14T08:24:00.731Z,7.1
2023-04-14T08:25:00.745Z,7.2
2023-04-14T08:26:00.731Z,7.2
2023-04-14T08:27:00.722Z,7.2
2023-04-14T08:28:00.765Z,7.4
2023-04-14T08:29:00.791Z,7.4
2023-04-14T08:30:00.784Z,7.6
2023-04-14T08:31:00.741Z,7.7
2023-04-14T08:32:00.750Z,7.8
2023-04-14T08:33:00.799Z,7.9
2023-04-14T08:34:00.775Z,7.9
2023-04-14T08:35:39.045Z,8
2023-04-14T08:36:01.015Z,8
2023-04-14T08:37:00.752Z,8.1
2023-04-14T08:38:00.751Z,8.2
2023-04-14T08:39:00.858Z,8.3
2023-04-14T08:40:00.836Z,8.4
2023-04-14T08:41:00.766Z,8.6
2023-04-14T08:42:00.737Z,8.6
2023-04-14T08:43:00.761Z,8.7
2023-04-14T08:44:00.737Z,8.8
2023-04-14T08:45:00.745Z,8.8
2023-04-14T08:46:00.839Z,8.9
2023-04-14T08:47:00.798Z,9
2023-04-14T08:48:00.834Z,9.1
2023-04-14T08:49:00.904Z,9.2
2023-04-14T08:50:00.900Z,9.4
2023-04-14T08:51:00.794Z,9.4
2023-04-14T08:52:00.748Z,9.4
2023-04-14T08:53:00.785Z,9.5
2023-04-14T08:54:00.975Z,9.6
2023-04-14T08:55:00.810Z,9.8
2023-04-14T08:56:00.780Z,9.9
2023-04-14T08:57:00.771Z,10
2023-04-14T08:58:00.809Z,10.1
2023-04-14T08:59:00.785Z,10.2
2023-04-14T09:00:00.987Z,10.4
2023-04-14T09:01:00.946Z,10.5
2023-04-14T09:02:00.854Z,10.6
2023-04-14T09:03:00.894Z,10.6
2023-04-14T09:04:01.158Z,10.7
2023-04-14T09:05:00.864Z,10.8
2023-04-14T09:06:00.811Z,10.9
2023-04-14T09:07:00.817Z,10.9
2023-04-14T09:08:00.837Z,11
2023-04-14T09:09:00.828Z,11.1
2023-04-14T09:10:00.998Z,11.1
2023-04-14T09:11:00.780Z,11
2023-04-14T09:12:00.769Z,10.9
2023-04-14T09:13:00.771Z,10.9
2023-04-14T09:14:01.346Z,10.9
2023-04-14T09:15:00.771Z,10.9
2023-04-14T09:16:00.799Z,11.1
2023-04-14T09:17:00.885Z,11.1
2023-04-14T09:18:00.839Z,11.2
2023-04-14T09:19:07.354Z,11.4
2023-04-14T09:20:34.889Z,11.5
2023-04-14T09:21:50.151Z,11.5
2023-04-14T09:22:00.855Z,11.6
2023-04-14T09:23:00.780Z,11.6
2023-04-14T09:24:01.067Z,11.7
2023-04-14T09:25:00.800Z,11.6
2023-04-14T09:26:00.812Z,11.6
2023-04-14T09:27:00.794Z,11.6
2023-04-14T09:28:00.796Z,11.6
2023-04-14T09:29:01.156Z,11.7
2023-04-14T09:30:00.916Z,11.8
2023-04-14T09:31:00.893Z,11.9
2023-04-14T09:32:00.801Z,12
2023-04-14T09:33:00.872Z,12.1
2023-04-14T09:34:01.128Z,12.1
2023-04-14T09:35:00.820Z,12.1
2023-04-14T09:36:00.801Z,12.1
2023-04-14T09:37:00.796Z,12.1
2023-04-14T09:38:00.824Z,12.1
2023-04-14T09:39:00.865Z,12.1
2023-04-14T09:40:01.071Z,12.2
2023-04-14T09:41:00.800Z,12.2
2023-04-14T09:42:00.808Z,12.3
2023-04-14T09:43:00.869Z,12.4
2023-04-14T09:44:01.303Z,12.4
2023-04-14T09:45:00.982Z,12.5
2023-04-14T09:46:00.833Z,12.6
2023-04-14T09:47:00.803Z,12.6
2023-04-14T09:48:00.840Z,12.6
2023-04-14T09:49:00.840Z,12.6
2023-04-14T09:50:00.988Z,12.6
2023-04-14T09:51:00.842Z,12.6
2023-04-14T09:52:00.842Z,12.6
2023-04-14T09:53:00.880Z,12.7
2023-04-14T09:54:01.152Z,12.8
2023-04-14T09:55:00.888Z,12.8
2023-04-14T09:56:00.849Z,12.9
2023-04-14T09:57:00.820Z,12.9
2023-04-14T09:58:00.845Z,12.9
2023-04-14T09:59:01.330Z,12.9
2023-04-14T10:00:01.352Z,12.9
2023-04-14T10:01:00.822Z,13
2023-04-14T10:02:00.966Z,13.1
2023-04-14T10:03:00.943Z,13.1
2023-04-14T10:04:00.854Z,13.2
2023-04-14T10:05:00.922Z,13.3
2023-04-14T10:06:00.882Z,13.4
2023-04-14T10:07:00.827Z,13.5
2023-04-14T10:08:00.895Z,13.6
2023-04-14T10:09:01.484Z,13.6
2023-04-14T10:10:01.013Z,13.6
2023-04-14T10:11:00.860Z,13.6
2023-04-14T10:12:00.869Z,13.7
2023-04-14T10:13:00.954Z,13.7
2023-04-14T10:14:00.929Z,13.7
2023-04-14T10:15:00.888Z,13.8
2023-04-14T10:16:00.887Z,13.8
2023-04-14T10:17:00.858Z,13.8
2023-04-14T10:18:00.905Z,13.8
2023-04-14T10:19:01.222Z,13.9
2023-04-14T10:20:01.011Z,13.9
2023-04-14T10:21:00.839Z,14
2023-04-14T10:22:00.880Z,14
2023-04-14T10:23:01.047Z,14
2023-04-14T10:24:00.938Z,14.1
2023-04-14T10:25:00.976Z,14.1
2023-04-14T10:26:01.018Z,14.2
2023-04-14T10:27:00.890Z,14.1
2023-04-14T10:28:00.991Z,14.1
2023-04-14T10:29:01.194Z,14.1
2023-04-14T10:30:00.901Z,14.1
2023-04-14T10:31:00.776Z,14.1
2023-04-14T10:32:00.781Z,14.1
2023-04-14T10:33:00.756Z,14.1
2023-04-14T10:34:00.764Z,14.1
2023-04-14T10:35:00.750Z,14.2
2023-04-14T10:36:00.694Z,14.2
2023-04-14T10:37:00.666Z,14.2
2023-04-14T10:38:00.621Z,14.1
2023-04-14T10:39:01.109Z,14.1
2023-04-14T10:40:01.650Z,14.1
2023-04-14T10:41:00.658Z,14.2
2023-04-14T10:42:00.558Z,14.2
2023-04-14T10:43:00.658Z,14.1
2023-04-14T10:44:00.523Z,14.1
2023-04-14T10:45:00.644Z,14.2
2023-04-14T10:46:00.617Z,14.3
2023-04-14T10:47:00.632Z,14.4
2023-04-14T10:48:00.615Z,14.6
2023-04-14T10:49:01.132Z,14.6
2023-04-14T10:50:00.896Z,14.6
2023-04-14T10:51:00.648Z,14.6
2023-04-14T10:52:00.841Z,14.4
2023-04-14T10:53:00.841Z,14.2
2023-04-14T10:54:00.912Z,14.1
2023-04-14T10:55:01.184Z,14
2023-04-14T10:56:01.048Z,13.9
2023-04-14T10:57:00.838Z,13.9
2023-04-14T10:58:00.821Z,13.9
2023-04-14T10:59:01.217Z,14.1
2023-04-14T11:00:01.067Z,14.1
2023-04-14T11:01:00.940Z,14.1
2023-04-14T11:02:01.149Z,14.2
2023-04-14T11:03:01.393Z,14.2
2023-04-14T11:04:00.923Z,14.3
2023-04-14T11:05:00.657Z,14.2
2023-04-14T11:06:00.674Z,14.3
2023-04-14T11:07:00.606Z,14.2
2023-04-14T11:08:02.765Z,14.2
2023-04-14T11:09:00.986Z,14
2023-04-14T11:10:00.918Z,13.9
2023-04-14T11:11:00.583Z,13.7
2023-04-14T11:12:00.470Z,13.6
2023-04-14T11:13:00.578Z,13.4
2023-04-14T11:14:00.868Z,13.3
2023-04-14T11:15:00.636Z,13.2
2023-04-14T11:16:00.542Z,13.2
2023-04-14T11:17:03.823Z,13.2
2023-04-14T11:18:00.582Z,13.1
2023-04-14T11:19:00.765Z,13.1
2023-04-14T11:20:00.656Z,13
2023-04-14T11:21:01.366Z,12.8
2023-04-14T11:22:00.951Z,12.6
2023-04-14T11:23:00.505Z,12.5
2023-04-14T11:24:00.535Z,12.4
2023-04-14T11:25:00.685Z,12.4
2023-04-14T11:26:00.524Z,12.3
2023-04-14T11:27:00.520Z,12.3
2023-04-14T11:28:00.579Z,12.3
2023-04-14T11:29:00.689Z,12.2
2023-04-14T11:30:00.735Z,12.2
2023-04-14T11:31:00.600Z,12.3
2023-04-14T11:32:00.613Z,12.2
2023-04-14T11:33:00.765Z,12.2
2023-04-14T11:34:00.665Z,12.2
2023-04-14T11:35:00.986Z,12.2
2023-04-14T11:36:00.800Z,12.2
2023-04-14T11:37:01.099Z,12.3
2023-04-14T11:38:00.521Z,12.4
2023-04-14T11:39:00.765Z,12.6
2023-04-14T11:40:00.589Z,12.7
2023-04-14T11:41:00.561Z,12.9
2023-04-14T11:42:00.541Z,13.1
2023-04-14T11:43:00.518Z,13.3
2023-04-14T11:44:00.593Z,13.4
2023-04-14T11:45:00.529Z,13.6
2023-04-14T11:46:00.568Z,13.8
2023-04-14T11:47:00.558Z,13.9
2023-04-14T11:48:00.547Z,14.1
2023-04-14T11:49:01.770Z,14.3
2023-04-14T11:50:00.572Z,14.3
2023-04-14T11:51:00.533Z,14.4
2023-04-14T11:52:00.546Z,14.5
2023-04-14T11:53:00.568Z,14.6
2023-04-14T11:54:00.525Z,14.7
2023-04-14T11:55:00.816Z,14.8
2023-04-14T11:56:00.848Z,14.9
2023-04-14T11:57:00.519Z,14.9
2023-04-14T11:58:00.628Z,14.9
2023-04-14T11:59:00.793Z,14.8
2023-04-14T12:00:00.577Z,14.7
2023-04-14T12:01:00.575Z,14.6
2023-04-14T12:02:00.743Z,14.6
2023-04-14T12:03:00.774Z,14.5
2023-04-14T12:04:00.676Z,14.4
2023-04-14T12:05:00.941Z,14.2
2023-04-14T12:06:00.803Z,14.1
2023-04-14T12:07:00.694Z,14.1
2023-04-14T12:08:00.793Z,13.9
2023-04-14T12:09:00.900Z,13.9
2023-04-14T12:10:00.612Z,13.9
2023-04-14T12:11:00.569Z,13.9
2023-04-14T12:12:00.523Z,13.8
2023-04-14T12:13:00.542Z,13.8
2023-04-14T12:14:00.668Z,13.6
2023-04-14T12:15:00.648Z,13.5
2023-04-14T12:16:00.600Z,13.3
2023-04-14T12:17:00.566Z,13.1
2023-04-14T12:18:00.612Z,12.7
2023-04-14T12:19:00.893Z,12.3
2023-04-14T12:20:00.610Z,12.1
2023-04-14T12:21:00.563Z,11.8
2023-04-14T12:22:00.537Z,11.7
2023-04-14T12:23:00.544Z,11.7
2023-04-14T12:24:00.566Z,11.7
2023-04-14T12:25:00.625Z,11.7
2023-04-14T12:26:00.585Z,11.7
2023-04-14T12:27:00.554Z,11.7
2023-04-14T12:28:00.544Z,11.6
2023-04-14T12:29:00.942Z,11.6
2023-04-14T12:30:00.825Z,11.6
2023-04-14T12:31:00.628Z,11.6
2023-04-14T12:32:00.736Z,11.6
2023-04-14T12:33:00.680Z,11.7
2023-04-14T12:34:00.552Z,11.6
2023-04-14T12:35:00.595Z,11.6
2023-04-14T12:36:00.578Z,11.6
2023-04-14T12:37:00.558Z,11.5
2023-04-14T12:38:00.546Z,11.4
2023-04-14T12:39:00.775Z,11.4
2023-04-14T12:40:00.677Z,11.4
2023-04-14T12:41:00.552Z,11.4
2023-04-14T12:42:00.731Z,11.4
2023-04-14T12:43:00.596Z,11.4
2023-04-14T12:44:00.577Z,11.3
2023-04-14T12:45:00.695Z,11.3
2023-04-14T12:46:00.574Z,11.2
2023-04-14T12:47:00.638Z,11.2
2023-04-14T12:48:00.594Z,11.2
2023-04-14T12:49:00.835Z,11.2
2023-04-14T12:50:00.633Z,11.2
2023-04-14T12:51:00.562Z,11.2
2023-04-14T12:52:00.597Z,11.2
2023-04-14T12:53:00.571Z,11.1
2023-04-14T12:54:00.557Z,11.1
2023-04-14T12:55:00.585Z,11.1
2023-04-14T12:56:00.586Z,11.1
2023-04-14T12:57:00.606Z,11
2023-04-14T12:58:00.568Z,10.9
2023-04-14T12:59:00.983Z,10.9
2023-04-14T13:00:00.602Z,10.8
2023-04-14T13:01:00.615Z,10.8
2023-04-14T13:02:00.687Z,10.8
2023-04-14T13:03:00.691Z,10.8
2023-04-14T13:04:00.736Z,10.8
2023-04-14T13:05:00.610Z,10.7
2023-04-14T13:06:00.604Z,10.7
2023-04-14T13:07:00.572Z,10.7
2023-04-14T13:08:00.635Z,10.7
2023-04-14T13:09:01.069Z,10.8
2023-04-14T13:10:00.626Z,10.8
2023-04-14T13:11:01.281Z,10.8
2023-04-14T13:12:00.620Z,10.8
2023-04-14T13:13:00.602Z,10.9
2023-04-14T13:14:00.613Z,10.9
2023-04-14T13:15:00.625Z,10.9
2023-04-14T13:16:15.248Z,10.9
2023-04-14T13:17:00.610Z,10.9
2023-04-14T13:18:00.700Z,11
2023-04-14T13:19:01.052Z,11.1
2023-04-14T13:20:00.641Z,11.2
2023-04-14T13:21:00.629Z,11.2
2023-04-14T13:22:00.617Z,11.3
2023-04-14T13:23:00.668Z,11.4
2023-04-14T13:24:00.648Z,11.4
2023-04-14T13:25:00.749Z,11.4
2023-04-14T13:26:00.598Z,11.4
2023-04-14T13:27:00.593Z,11.5
2023-04-14T13:28:00.688Z,11.6
2023-04-14T13:29:01.047Z,11.6
2023-04-14T13:30:00.636Z,11.7
2023-04-14T13:31:00.633Z,11.8
2023-04-14T13:32:00.687Z,11.8
2023-04-14T13:33:00.636Z,11.8
2023-04-14T13:34:00.642Z,11.9
2023-04-14T13:35:00.653Z,11.9
2023-04-14T13:36:00.640Z,11.9
2023-04-14T13:37:00.617Z,12
2023-04-14T13:38:00.617Z,12
2023-04-14T13:39:01.019Z,12.1
2023-04-14T13:40:00.665Z,12.2
2023-04-14T13:41:00.636Z,12.3